PWSweather.com
Personal Weather Stations
Station Observations
IRIVIRED2
île Maurice, Petit RaffrayMU

île MauricePetit RaffrayMU

Lat: -20.02533, Lon: 57.61883

Elevation: 183

Station Type: Davis Vantage Pro2 plus

http://www.meteomauritius.altervista.org

Latest ConditionsUpdated 5:40:01 PM GMT+04:04 Monday, Jul 23, 2018
Currently Today's Max Today's Min Today's Average
Temperature 67.2°F19.6°C 74.7°F23.7°C 63.9°F17.7°C 69.1°F20.6°C
Dew Point 62.2°F16.8°C 65.7°F18.7°C 58.1°F14.5°C 62.3°F16.8°C
Winds 3.5 mph SSE5.6 kmh SSE 12.7 mph -20.4 kmh - - 4.6 mph 7.4 kmh
Wind Gusts 10.4 mph16.7 kmh 23.0 mph37.0 kmh - -
Humidity 84% 87% 67% 79%
Pressure 30.21 in1023.0 mb 30.26 in1024.7 mb 30.18 in1022.0 mb -
Precipitation - 0.06 in1.5 mm - -
Hour Temp Dew Point Humidity Winds Wind Gusts Pressure Precip Precip Rate Daily Precip Total
05:40 PM 67.2°F19.6°C 62.2°F16.8°C 84% 3.5 mph SSE5.6 kmh SSE 10.4 mph16.7 kmh 30.21 in1023.0 mb - 0.01 in0.3 mm 0.06 in1.5 mm
05:30 PM 67.4°F19.7°C 62.7°F17.1°C 85% 5.8 mph SE9.3 kmh SE 11.5 mph18.5 kmh 30.21 in1023.0 mb - 0.00 in0.0 mm 0.05 in1.3 mm
05:20 PM 67.9°F19.9°C 63.6°F17.6°C 86% 9.2 mph ESE14.8 kmh ESE 10.4 mph16.7 kmh 30.22 in1023.4 mb - 0.01 in0.3 mm 0.05 in1.3 mm
05:10 PM 69.0°F20.6°C 64.9°F18.3°C 87% 8.1 mph SE13.0 kmh SE 12.7 mph20.4 kmh 30.21 in1023.0 mb - 0.02 in0.5 mm 0.04 in1.0 mm
05:00 PM 68.9°F20.5°C 64.5°F18.1°C 86% 5.8 mph SE9.3 kmh SE 10.4 mph16.7 kmh 30.21 in1023.0 mb - 0.00 in0.0 mm 0.02 in0.5 mm
04:50 PM 68.9°F20.5°C 64.6°F18.1°C 86% 5.8 mph SE9.3 kmh SE 9.2 mph14.8 kmh 30.20 in1022.7 mb - 0.00 in0.0 mm 0.02 in0.5 mm
04:40 PM 69.3°F20.7°C 64.6°F18.1°C 85% 6.9 mph SE11.1 kmh SE 11.5 mph18.5 kmh 30.20 in1022.7 mb - 0.00 in0.0 mm 0.02 in0.5 mm
04:30 PM 71.5°F21.9°C 65.7°F18.7°C 82% 8.1 mph SE13.0 kmh SE 15.0 mph24.1 kmh 30.20 in1022.7 mb - 0.00 in0.0 mm 0.02 in0.5 mm
04:20 PM 71.4°F21.9°C 65.3°F18.5°C 81% 8.1 mph SSE13.0 kmh SSE 13.8 mph22.2 kmh 30.20 in1022.7 mb - 0.00 in0.0 mm 0.02 in0.5 mm
04:10 PM 72.6°F22.6°C 65.3°F18.5°C 78% 9.2 mph SSE14.8 kmh SSE 15.0 mph24.1 kmh 30.19 in1022.4 mb - 0.00 in0.0 mm 0.02 in0.5 mm
04:00 PM 72.4°F22.4°C 64.8°F18.2°C 77% 6.9 mph SSE11.1 kmh SSE 13.8 mph22.2 kmh 30.19 in1022.4 mb - 0.01 in0.3 mm 0.02 in0.5 mm
03:50 PM 72.3°F22.4°C 64.7°F18.2°C 77% 8.1 mph SSE13.0 kmh SSE 11.5 mph18.5 kmh 30.19 in1022.4 mb - 0.00 in0.0 mm 0.01 in0.3 mm
03:40 PM 72.8°F22.7°C 65.2°F18.4°C 77% 10.4 mph SE16.7 kmh SE 18.4 mph29.6 kmh 30.19 in1022.4 mb - 0.00 in0.0 mm 0.01 in0.3 mm
03:30 PM 72.4°F22.4°C 64.0°F17.8°C 75% 5.8 mph SE9.3 kmh SE 11.5 mph18.5 kmh 30.19 in1022.4 mb - 0.00 in0.0 mm 0.01 in0.3 mm
03:20 PM 72.9°F22.7°C 64.1°F17.8°C 74% 8.1 mph SE13.0 kmh SE 17.3 mph27.8 kmh 30.19 in1022.4 mb - 0.00 in0.0 mm 0.01 in0.3 mm
03:10 PM 74.4°F23.6°C 64.4°F18.0°C 71% 9.2 mph SE14.8 kmh SE 21.9 mph35.2 kmh 30.18 in1022.0 mb - 0.00 in0.0 mm 0.01 in0.3 mm
03:00 PM 74.0°F23.3°C 63.2°F17.3°C 69% 9.2 mph ESE14.8 kmh ESE 11.5 mph18.5 kmh 30.18 in1022.0 mb - 0.00 in0.0 mm 0.01 in0.3 mm
02:50 PM 74.0°F23.3°C 62.8°F17.1°C 68% 9.2 mph SE14.8 kmh SE 18.4 mph29.6 kmh 30.18 in1022.0 mb - 0.00 in0.0 mm 0.01 in0.3 mm
02:40 PM 73.8°F23.2°C 63.0°F17.2°C 69% 10.4 mph SE16.7 kmh SE 12.7 mph20.4 kmh 30.19 in1022.4 mb - 0.00 in0.0 mm 0.01 in0.3 mm
02:30 PM 73.7°F23.2°C 63.7°F17.6°C 71% 6.9 mph SE11.1 kmh SE 8.1 mph13.0 kmh 30.19 in1022.4 mb - 0.00 in0.0 mm 0.01 in0.3 mm
02:20 PM 73.0°F22.8°C 64.2°F17.9°C 74% 10.4 mph SE16.7 kmh SE 19.6 mph31.5 kmh 30.19 in1022.4 mb - 0.00 in0.0 mm 0.01 in0.3 mm
02:10 PM 72.4°F22.4°C 65.5°F18.6°C 79% 8.1 mph SSE13.0 kmh SSE 12.7 mph20.4 kmh 30.19 in1022.4 mb - 0.00 in0.0 mm 0.01 in0.3 mm
02:00 PM 71.4°F21.9°C 65.0°F18.3°C 80% 9.2 mph SE14.8 kmh SE 13.8 mph22.2 kmh 30.20 in1022.7 mb - 0.00 in0.0 mm 0.01 in0.3 mm
01:50 PM 70.0°F21.1°C 64.2°F17.9°C 82% 8.1 mph SSE13.0 kmh SSE 10.4 mph16.7 kmh 30.20 in1022.7 mb - 0.00 in0.0 mm 0.01 in0.3 mm
01:40 PM 70.3°F21.3°C 64.6°F18.1°C 82% 8.1 mph SE13.0 kmh SE 11.5 mph18.5 kmh 30.20 in1022.7 mb - 0.00 in0.0 mm 0.01 in0.3 mm
01:30 PM 71.9°F22.2°C 65.0°F18.3°C 79% 9.2 mph SE14.8 kmh SE 15.0 mph24.1 kmh 30.20 in1022.7 mb - 0.00 in0.0 mm 0.01 in0.3 mm
01:20 PM 71.7°F22.1°C 64.1°F17.8°C 77% 5.8 mph SE9.3 kmh SE 8.1 mph13.0 kmh 30.20 in1022.7 mb - 0.00 in0.0 mm 0.01 in0.3 mm
01:10 PM 72.2°F22.3°C 64.2°F17.9°C 76% 3.5 mph SE5.6 kmh SE 10.4 mph16.7 kmh 30.20 in1022.7 mb - 0.01 in0.3 mm 0.01 in0.3 mm
01:00 PM 73.8°F23.2°C 63.8°F17.7°C 71% 10.4 mph SE16.7 kmh SE 21.9 mph35.2 kmh 30.20 in1022.7 mb - 0.00 in0.0 mm 0.00 in0.0 mm
12:50 PM 74.1°F23.4°C 64.5°F18.1°C 72% 8.1 mph SE13.0 kmh SE 11.5 mph18.5 kmh 30.20 in1022.7 mb - 0.00 in0.0 mm 0.00 in0.0 mm
12:40 PM 73.5°F23.1°C 64.3°F17.9°C 73% Calm Calm 4.6 mph7.4 kmh 30.21 in1023.0 mb - 0.00 in0.0 mm 0.00 in0.0 mm
12:30 PM 74.7°F23.7°C 63.8°F17.7°C 69% 10.4 mph SSE16.7 kmh SSE 18.4 mph29.6 kmh 30.21 in1023.0 mb - 0.00 in0.0 mm 0.00 in0.0 mm
12:20 PM 74.2°F23.4°C 63.4°F17.4°C 69% 9.2 mph SE14.8 kmh SE 20.7 mph33.3 kmh 30.21 in1023.0 mb - 0.00 in0.0 mm 0.00 in0.0 mm
12:10 PM 73.6°F23.1°C 62.8°F17.1°C 69% 5.8 mph SE9.3 kmh SE 9.2 mph14.8 kmh 30.22 in1023.4 mb - 0.00 in0.0 mm 0.00 in0.0 mm
12:00 PM 74.3°F23.5°C 63.5°F17.5°C 69% 12.7 mph SE20.4 kmh SE 23.0 mph37.0 kmh 30.22 in1023.4 mb - 0.00 in0.0 mm 0.00 in0.0 mm
11:50 AM 74.2°F23.4°C 63.0°F17.2°C 68% 5.8 mph SE9.3 kmh SE 17.3 mph27.8 kmh 30.23 in1023.7 mb - 0.00 in0.0 mm 0.00 in0.0 mm
11:40 AM 74.2°F23.4°C 62.5°F16.9°C 67% 9.2 mph ESE14.8 kmh ESE 15.0 mph24.1 kmh 30.23 in1023.7 mb - 0.00 in0.0 mm 0.00 in0.0 mm
11:30 AM 74.1°F23.4°C 63.3°F17.4°C 69% 10.4 mph ESE16.7 kmh ESE 18.4 mph29.6 kmh 30.23 in1023.7 mb - 0.00 in0.0 mm 0.00 in0.0 mm
11:20 AM 74.2°F23.4°C 63.0°F17.2°C 68% 10.4 mph SE16.7 kmh SE 13.8 mph22.2 kmh 30.23 in1023.7 mb - 0.00 in0.0 mm 0.00 in0.0 mm
11:10 AM 73.9°F23.3°C 63.1°F17.3°C 69% 6.9 mph SE11.1 kmh SE 18.4 mph29.6 kmh 30.24 in1024.0 mb - 0.00 in0.0 mm 0.00 in0.0 mm
11:00 AM 74.5°F23.6°C 64.1°F17.8°C 70% 2.3 mph SE3.7 kmh SE 10.4 mph16.7 kmh 30.24 in1024.0 mb - 0.00 in0.0 mm 0.00 in0.0 mm
10:50 AM 74.1°F23.4°C 62.4°F16.9°C 67% 6.9 mph ESE11.1 kmh ESE 9.2 mph14.8 kmh 30.24 in1024.0 mb - 0.00 in0.0 mm 0.00 in0.0 mm
10:40 AM 73.7°F23.2°C 62.9°F17.2°C 69% 4.6 mph SE7.4 kmh SE 3.5 mph5.6 kmh 30.24 in1024.0 mb - 0.00 in0.0 mm 0.00 in0.0 mm
10:30 AM 74.1°F23.4°C 62.8°F17.1°C 68% 11.5 mph ESE18.5 kmh ESE 18.4 mph29.6 kmh 30.24 in1024.0 mb - 0.00 in0.0 mm 0.00 in0.0 mm
10:20 AM 73.2°F22.9°C 62.4°F16.9°C 69% 6.9 mph SSE11.1 kmh SSE 15.0 mph24.1 kmh 30.25 in1024.4 mb - 0.00 in0.0 mm 0.00 in0.0 mm
10:10 AM 73.4°F23.0°C 62.6°F17.0°C 69% 6.9 mph SE11.1 kmh SE 15.0 mph24.1 kmh 30.25 in1024.4 mb - 0.00 in0.0 mm 0.00 in0.0 mm
10:00 AM 72.6°F22.6°C 62.7°F17.1°C 71% 5.8 mph ESE9.3 kmh ESE 10.4 mph16.7 kmh 30.25 in1024.4 mb - 0.00 in0.0 mm 0.00 in0.0 mm
09:50 AM 71.6°F22.0°C 62.1°F16.7°C 72% 1.2 mph SE1.9 kmh SE 8.1 mph13.0 kmh 30.26 in1024.7 mb - 0.00 in0.0 mm 0.00 in0.0 mm
09:40 AM 72.3°F22.4°C 62.7°F17.1°C 72% 5.8 mph SE9.3 kmh SE 16.1 mph25.9 kmh 30.26 in1024.7 mb - 0.00 in0.0 mm 0.00 in0.0 mm
09:30 AM 72.6°F22.6°C 61.9°F16.6°C 69% 9.2 mph SE14.8 kmh SE 17.3 mph27.8 kmh 30.26 in1024.7 mb - 0.00 in0.0 mm 0.00 in0.0 mm
09:20 AM 72.5°F22.5°C 62.6°F17.0°C 71% 2.3 mph SE3.7 kmh SE 4.6 mph7.4 kmh 30.26 in1024.7 mb - 0.00 in0.0 mm 0.00 in0.0 mm
09:10 AM 72.0°F22.2°C 62.5°F16.9°C 72% 1.2 mph SE1.9 kmh SE 3.5 mph5.6 kmh 30.25 in1024.4 mb - 0.00 in0.0 mm 0.00 in0.0 mm
09:00 AM 71.3°F21.8°C 62.2°F16.8°C 73% 2.3 mph SSE3.7 kmh SSE 5.8 mph9.3 kmh 30.25 in1024.4 mb - 0.00 in0.0 mm 0.00 in0.0 mm
08:50 AM 70.6°F21.4°C 62.2°F16.8°C 75% Calm Calm 2.3 mph3.7 kmh 30.25 in1024.4 mb - 0.00 in0.0 mm 0.00 in0.0 mm
08:40 AM 69.8°F21.0°C 62.2°F16.8°C 77% 1.2 mph S1.9 kmh S 4.6 mph7.4 kmh 30.25 in1024.4 mb - 0.00 in0.0 mm 0.00 in0.0 mm
08:30 AM 69.2°F20.7°C 61.7°F16.5°C 77% Calm Calm -- 30.24 in1024.0 mb - 0.00 in0.0 mm 0.00 in0.0 mm
08:20 AM 68.4°F20.2°C 60.9°F16.1°C 77% 1.2 mph S1.9 kmh S 4.6 mph7.4 kmh 30.24 in1024.0 mb - 0.00 in0.0 mm 0.00 in0.0 mm
08:10 AM 67.2°F19.6°C 60.5°F15.8°C 79% 4.6 mph S7.4 kmh S 8.1 mph13.0 kmh 30.24 in1024.0 mb - 0.00 in0.0 mm 0.00 in0.0 mm
08:00 AM 66.1°F18.9°C 59.8°F15.4°C 80% 2.3 mph S3.7 kmh S 5.8 mph9.3 kmh 30.23 in1023.7 mb - 0.00 in0.0 mm 0.00 in0.0 mm
07:50 AM 65.0°F18.3°C 59.1°F15.1°C 81% Calm Calm -- 30.23 in1023.7 mb - 0.00 in0.0 mm 0.00 in0.0 mm
07:40 AM 64.5°F18.1°C 58.5°F14.7°C 81% Calm Calm -- 30.23 in1023.7 mb - 0.00 in0.0 mm 0.00 in0.0 mm
07:30 AM 64.4°F18.0°C 58.1°F14.5°C 80% 1.2 mph S1.9 kmh S 3.5 mph5.6 kmh 30.22 in1023.4 mb - 0.00 in0.0 mm 0.00 in0.0 mm
07:20 AM 64.4°F18.0°C 58.1°F14.5°C 80% 2.3 mph S3.7 kmh S 3.5 mph5.6 kmh 30.22 in1023.4 mb - 0.00 in0.0 mm 0.00 in0.0 mm
07:10 AM 64.3°F17.9°C 58.3°F14.6°C 81% 1.2 mph S1.9 kmh S 5.8 mph9.3 kmh 30.22 in1023.4 mb - 0.00 in0.0 mm 0.00 in0.0 mm
07:00 AM 64.3°F17.9°C 58.3°F14.6°C 81% 4.6 mph S7.4 kmh S 6.9 mph11.1 kmh 30.22 in1023.4 mb - 0.00 in0.0 mm 0.00 in0.0 mm
06:50 AM 64.1°F17.8°C 58.5°F14.7°C 82% 3.5 mph S5.6 kmh S 3.5 mph5.6 kmh 30.22 in1023.4 mb - 0.00 in0.0 mm 0.00 in0.0 mm
06:40 AM 64.1°F17.8°C 58.5°F14.7°C 82% 2.3 mph S3.7 kmh S 4.6 mph7.4 kmh 30.22 in1023.4 mb - 0.00 in0.0 mm 0.00 in0.0 mm
06:30 AM 64.1°F17.8°C 58.8°F14.9°C 83% 2.3 mph S3.7 kmh S 4.6 mph7.4 kmh 30.21 in1023.0 mb - 0.00 in0.0 mm 0.00 in0.0 mm
06:20 AM 64.0°F17.8°C 59.1°F15.1°C 84% 1.2 mph S1.9 kmh S 3.5 mph5.6 kmh 30.22 in1023.4 mb - 0.00 in0.0 mm 0.00 in0.0 mm
06:10 AM 63.9°F17.7°C 59.3°F15.2°C 85% 3.5 mph S5.6 kmh S 5.8 mph9.3 kmh 30.21 in1023.0 mb - 0.00 in0.0 mm 0.00 in0.0 mm
06:00 AM 64.1°F17.8°C 59.5°F15.3°C 85% 2.3 mph S3.7 kmh S 3.5 mph5.6 kmh 30.21 in1023.0 mb - 0.00 in0.0 mm 0.00 in0.0 mm
05:50 AM 64.3°F17.9°C 59.7°F15.4°C 85% 1.2 mph S1.9 kmh S 4.6 mph7.4 kmh 30.21 in1023.0 mb - 0.00 in0.0 mm 0.00 in0.0 mm
05:40 AM 64.4°F18.0°C 59.8°F15.4°C 85% 3.5 mph S5.6 kmh S 5.8 mph9.3 kmh 30.20 in1022.7 mb - 0.00 in0.0 mm 0.00 in0.0 mm
05:30 AM 64.4°F18.0°C 59.8°F15.4°C 85% 2.3 mph S3.7 kmh S 4.6 mph7.4 kmh 30.20 in1022.7 mb - 0.00 in0.0 mm 0.00 in0.0 mm
05:20 AM 64.5°F18.1°C 59.9°F15.5°C 85% 3.5 mph S5.6 kmh S 4.6 mph7.4 kmh 30.20 in1022.7 mb - 0.00 in0.0 mm 0.00 in0.0 mm
05:10 AM 64.8°F18.2°C 60.2°F15.7°C 85% 1.2 mph S1.9 kmh S 3.5 mph5.6 kmh 30.20 in1022.7 mb - 0.00 in0.0 mm 0.00 in0.0 mm
05:00 AM 65.0°F18.3°C 60.4°F15.8°C 85% 4.6 mph S7.4 kmh S 6.9 mph11.1 kmh 30.19 in1022.4 mb - 0.00 in0.0 mm 0.00 in0.0 mm
04:50 AM 64.9°F18.3°C 60.3°F15.7°C 85% 4.6 mph S7.4 kmh S 6.9 mph11.1 kmh 30.19 in1022.4 mb - 0.00 in0.0 mm 0.00 in0.0 mm
04:40 AM 64.7°F18.2°C 60.4°F15.8°C 86% 1.2 mph S1.9 kmh S -- 30.19 in1022.4 mb - 0.00 in0.0 mm 0.00 in0.0 mm
04:30 AM 64.7°F18.2°C 60.4°F15.8°C 86% Calm Calm 1.2 mph1.9 kmh 30.19 in1022.4 mb - 0.00 in0.0 mm 0.00 in0.0 mm
04:20 AM 64.8°F18.2°C 60.5°F15.8°C 86% 1.2 mph S1.9 kmh S 4.6 mph7.4 kmh 30.20 in1022.7 mb - 0.00 in0.0 mm 0.00 in0.0 mm
04:10 AM 64.8°F18.2°C 60.5°F15.8°C 86% 1.2 mph S1.9 kmh S -- 30.20 in1022.7 mb - 0.00 in0.0 mm 0.00 in0.0 mm
04:00 AM 64.7°F18.2°C 60.7°F15.9°C 87% Calm Calm 2.3 mph3.7 kmh 30.20 in1022.7 mb - 0.00 in0.0 mm 0.00 in0.0 mm
03:50 AM 64.7°F18.2°C 60.7°F15.9°C 87% Calm Calm -- 30.20 in1022.7 mb - 0.00 in0.0 mm 0.00 in0.0 mm
03:40 AM 64.8°F18.2°C 60.8°F16.0°C 87% 2.3 mph S3.7 kmh S 3.5 mph5.6 kmh 30.20 in1022.7 mb - 0.00 in0.0 mm 0.00 in0.0 mm
03:30 AM 64.9°F18.3°C 61.0°F16.1°C 87% 2.3 mph S3.7 kmh S 6.9 mph11.1 kmh 30.20 in1022.7 mb - 0.00 in0.0 mm 0.00 in0.0 mm
03:20 AM 65.2°F18.4°C 61.2°F16.2°C 87% 1.2 mph SSE1.9 kmh SSE 4.6 mph7.4 kmh 30.20 in1022.7 mb - 0.00 in0.0 mm 0.00 in0.0 mm
03:10 AM 65.5°F18.6°C 61.2°F16.2°C 86% 1.2 mph SSE1.9 kmh SSE 3.5 mph5.6 kmh 30.20 in1022.7 mb - 0.00 in0.0 mm 0.00 in0.0 mm
03:00 AM 65.7°F18.7°C 61.4°F16.3°C 86% 2.3 mph SSE3.7 kmh SSE 6.9 mph11.1 kmh 30.20 in1022.7 mb - 0.00 in0.0 mm 0.00 in0.0 mm
02:50 AM 66.0°F18.9°C 61.7°F16.5°C 86% Calm Calm 2.3 mph3.7 kmh 30.20 in1022.7 mb - 0.00 in0.0 mm 0.00 in0.0 mm
02:40 AM 66.3°F19.1°C 62.0°F16.7°C 86% 2.3 mph SSE3.7 kmh SSE 6.9 mph11.1 kmh 30.20 in1022.7 mb - 0.00 in0.0 mm 0.00 in0.0 mm
02:30 AM 66.5°F19.2°C 62.2°F16.8°C 86% 2.3 mph SE3.7 kmh SE 6.9 mph11.1 kmh 30.20 in1022.7 mb - 0.00 in0.0 mm 0.00 in0.0 mm
02:20 AM 66.7°F19.3°C 62.4°F16.9°C 86% 4.6 mph SE7.4 kmh SE 6.9 mph11.1 kmh 30.20 in1022.7 mb - 0.00 in0.0 mm 0.00 in0.0 mm
02:10 AM 67.0°F19.4°C 62.6°F17.0°C 86% 1.2 mph SE1.9 kmh SE 4.6 mph7.4 kmh 30.21 in1023.0 mb - 0.00 in0.0 mm 0.00 in0.0 mm
02:00 AM 67.2°F19.6°C 62.9°F17.2°C 86% 3.5 mph SE5.6 kmh SE 4.6 mph7.4 kmh 30.20 in1022.7 mb - 0.00 in0.0 mm 0.00 in0.0 mm
01:50 AM 67.4°F19.7°C 62.7°F17.1°C 85% 2.3 mph S3.7 kmh S 6.9 mph11.1 kmh 30.21 in1023.0 mb - 0.00 in0.0 mm 0.00 in0.0 mm
01:40 AM 67.6°F19.8°C 63.2°F17.3°C 86% 3.5 mph SSE5.6 kmh SSE 8.1 mph13.0 kmh 30.21 in1023.0 mb - 0.00 in0.0 mm 0.00 in0.0 mm
01:30 AM 67.7°F19.8°C 63.4°F17.4°C 86% 1.2 mph SE1.9 kmh SE 3.5 mph5.6 kmh 30.22 in1023.4 mb - 0.00 in0.0 mm 0.00 in0.0 mm
01:20 AM 67.6°F19.8°C 63.3°F17.4°C 86% 2.3 mph SSE3.7 kmh SSE 8.1 mph13.0 kmh 30.22 in1023.4 mb - 0.00 in0.0 mm 0.00 in0.0 mm
01:10 AM 67.6°F19.8°C 63.6°F17.6°C 87% 4.6 mph SE7.4 kmh SE 10.4 mph16.7 kmh 30.22 in1023.4 mb - 0.00 in0.0 mm 0.00 in0.0 mm
01:00 AM 67.5°F19.7°C 63.5°F17.5°C 87% 3.5 mph ESE5.6 kmh ESE 8.1 mph13.0 kmh 30.22 in1023.4 mb - 0.00 in0.0 mm 0.00 in0.0 mm
12:50 AM 67.4°F19.7°C 63.4°F17.4°C 87% 1.2 mph SSE1.9 kmh SSE 5.8 mph9.3 kmh 30.22 in1023.4 mb - 0.00 in0.0 mm 0.00 in0.0 mm
12:40 AM 67.1°F19.5°C 63.1°F17.3°C 87% 2.3 mph SE3.7 kmh SE 8.1 mph13.0 kmh 30.23 in1023.7 mb - 0.00 in0.0 mm 0.00 in0.0 mm
12:30 AM 66.9°F19.4°C 62.9°F17.2°C 87% 2.3 mph SSE3.7 kmh SSE 4.6 mph7.4 kmh 30.23 in1023.7 mb - 0.00 in0.0 mm 0.00 in0.0 mm
12:20 AM 66.7°F19.3°C 62.7°F17.1°C 87% 3.5 mph S5.6 kmh S 5.8 mph9.3 kmh 30.23 in1023.7 mb - 0.00 in0.0 mm 0.00 in0.0 mm
12:10 AM 66.5°F19.2°C 62.5°F16.9°C 87% 3.5 mph SSE5.6 kmh SSE 5.8 mph9.3 kmh 30.23 in1023.7 mb - 0.00 in0.0 mm 0.00 in0.0 mm
12:00 AM 66.1°F18.9°C 61.8°F16.6°C 86% 1.2 mph SSE1.9 kmh SSE 4.6 mph7.4 kmh 30.23 in1023.7 mb - 0.00 in0.0 mm 0.00 in0.0 mm